»·PEaware :: QXE2809 KPDX-KSEA

QXE2809 :: KPDX-KSEA

FLIGHT INFORMATION

Flight Status: Arrived
Operator:
Horizon Air
More flights by this operator :: More flights under this callsign
Pilot: Adlai G. (28854)
Aircraft: DEHAVILLAND DASH 8 400
(DH8D)
More flights by this aircraft type
Origin: KPDX Portland Intl
United States
Destination: KSEA Seattle-Tacoma Intl
United States
More flights between these airports :: More routes between these airports
Route: COUGA KRIEG HAWKZ7
File this flight plan on PilotEdge
Remarks:
Altitude:
(Current/Filed)
16,000ft
Speed:
(Current/Filed)
361kts
Departed: 13-Jun-20 07:03 PM
Arrived: 13-Jun-20 07:40 PM
Distance/Time
Traveled:
112nm/0:37
Distance/Time
To Go:
Arrived

Flight Plot

Page will automatically refresh every two minutes.

Flight plan parsing failed; only flown route is shown


Map Options




Map Legend


Flown Route
Filed Route
Departure Airport
Arrival Airport
Navaid (VOR, NDB)
Fix

Horizontal Profiles

Position Reports

Time Latitude Longitude Heading Altitude Ground
Speed
13-Jun-20 17:46 45.589810 -122.599241 28 37ft 0kts
13-Jun-20 17:47 45.589810 -122.599241 28 37ft 0kts
13-Jun-20 17:48 45.589810 -122.599241 28 37ft 0kts
13-Jun-20 17:49 45.589810 -122.599241 28 37ft 0kts
13-Jun-20 17:50 45.589810 -122.599241 28 37ft 0kts
13-Jun-20 17:51 45.589810 -122.599241 28 37ft 0kts
13-Jun-20 17:52 45.589810 -122.599241 28 37ft 0kts
13-Jun-20 17:53 45.589810 -122.599241 28 37ft 0kts
13-Jun-20 17:54 45.589810 -122.599241 28 37ft 0kts
13-Jun-20 17:55 45.589810 -122.599241 28 37ft 0kts
13-Jun-20 17:56 45.589810 -122.599241 28 37ft 0kts
13-Jun-20 17:57 45.589810 -122.599241 28 37ft 0kts
13-Jun-20 17:58 45.589810 -122.599241 28 37ft 0kts
13-Jun-20 17:59 45.589810 -122.599241 28 37ft 0kts
13-Jun-20 18:00 45.589810 -122.599241 28 37ft 0kts
13-Jun-20 18:01 45.589810 -122.599241 28 37ft 0kts
13-Jun-20 18:02 45.589810 -122.599241 28 37ft 0kts
13-Jun-20 18:03 45.589810 -122.599241 28 37ft 0kts
13-Jun-20 18:04 45.589810 -122.599241 28 37ft 0kts
13-Jun-20 18:05 45.589810 -122.599241 28 37ft 0kts
13-Jun-20 18:06 45.589810 -122.599241 28 37ft 0kts
13-Jun-20 18:07 45.589810 -122.599241 28 37ft 0kts
13-Jun-20 18:08 45.589810 -122.599241 28 37ft 0kts
13-Jun-20 18:09 45.589810 -122.599241 28 37ft 0kts
13-Jun-20 18:10 45.589810 -122.599241 28 37ft 0kts
13-Jun-20 18:11 45.589810 -122.599241 28 37ft 0kts
13-Jun-20 18:12 45.589810 -122.599241 28 37ft 0kts
13-Jun-20 18:13 45.589810 -122.599241 28 37ft 0kts
13-Jun-20 18:14 45.589810 -122.599241 28 37ft 0kts
13-Jun-20 18:15 45.589810 -122.599241 28 37ft 0kts
13-Jun-20 18:16 45.589810 -122.599241 28 37ft 0kts
13-Jun-20 18:17 45.589810 -122.599241 28 37ft 0kts
13-Jun-20 18:18 45.589810 -122.599241 28 37ft 0kts
13-Jun-20 18:19 45.589810 -122.599241 28 37ft 0kts
13-Jun-20 18:20 45.589810 -122.599241 28 37ft 0kts
13-Jun-20 18:21 45.589810 -122.599241 28 37ft 0kts
13-Jun-20 18:22 45.589810 -122.599241 28 37ft 0kts
13-Jun-20 18:23 45.589810 -122.599241 28 37ft 0kts
13-Jun-20 18:24 45.589810 -122.599241 28 37ft 0kts
13-Jun-20 18:25 45.589810 -122.599241 28 37ft 0kts
13-Jun-20 18:26 45.589810 -122.599241 28 37ft 0kts
13-Jun-20 18:27 45.589810 -122.599241 28 37ft 0kts
13-Jun-20 18:28 45.589810 -122.599241 28 37ft 0kts
13-Jun-20 18:29 45.589810 -122.599241 28 37ft 0kts
13-Jun-20 18:30 45.589810 -122.599241 28 37ft 0kts
13-Jun-20 18:31 45.589810 -122.599241 28 37ft 0kts
13-Jun-20 18:32 45.589810 -122.599241 28 37ft 0kts
13-Jun-20 18:33 45.589810 -122.599241 28 37ft 0kts
13-Jun-20 18:34 45.589810 -122.599241 28 37ft 0kts
13-Jun-20 18:35 45.589810 -122.599241 28 37ft 0kts
13-Jun-20 18:36 45.589810 -122.599241 28 37ft 0kts
13-Jun-20 18:37 45.589810 -122.599241 28 37ft 0kts
13-Jun-20 18:38 45.589810 -122.599241 28 37ft 0kts
13-Jun-20 18:39 45.589810 -122.599241 28 37ft 0kts
13-Jun-20 18:40 45.589810 -122.599241 28 37ft 0kts
13-Jun-20 18:41 45.589810 -122.599241 28 37ft 0kts
13-Jun-20 18:42 45.589810 -122.599241 28 37ft 0kts
13-Jun-20 18:43 45.589810 -122.599241 28 37ft 0kts
13-Jun-20 18:45 45.589810 -122.599241 28 37ft 0kts
13-Jun-20 18:46 45.589810 -122.599241 28 37ft 0kts
13-Jun-20 18:47 45.589810 -122.599241 28 37ft 0kts
13-Jun-20 18:48 45.589810 -122.599241 28 37ft 0kts
13-Jun-20 18:49 45.589810 -122.599241 28 37ft 0kts
13-Jun-20 18:50 45.589810 -122.599241 28 37ft 0kts
13-Jun-20 18:51 45.589810 -122.599241 28 37ft 0kts
13-Jun-20 18:52 45.589810 -122.599241 28 37ft 0kts
13-Jun-20 18:53 45.589505 -122.599463 23 37ft 2kts
13-Jun-20 18:54 45.588850 -122.599443 299 37ft 2kts
13-Jun-20 18:55 45.588812 -122.599346 299 37ft 0kts
13-Jun-20 18:56 45.588812 -122.599346 299 37ft 0kts
13-Jun-20 18:57 45.588812 -122.599346 299 37ft 0kts
13-Jun-20 18:58 45.588812 -122.599347 299 37ft 0kts
13-Jun-20 18:59 45.589636 -122.601434 299 37ft 10kts
13-Jun-20 19:00 45.591539 -122.599643 63 37ft 8kts
13-Jun-20 19:01 45.593331 -122.596815 42 37ft 6kts
13-Jun-20 19:02 45.594543 -122.594962 118 37ft 2kts
13-Jun-20 19:03 45.580880 -122.560558 122 1439ft 139kts
13-Jun-20 19:03 45.562061 -122.512188 119 3775ft 181kts
13-Jun-20 19:05 45.560557 -122.428344 32 6888ft 236kts
13-Jun-20 19:05 45.615065 -122.433216 336 8373ft 253kts
13-Jun-20 19:06 45.682338 -122.467120 335 10221ft 260kts
13-Jun-20 19:07 45.750004 -122.501327 335 12009ft 258kts
13-Jun-20 19:08 45.818033 -122.536033 334 13574ft 255kts
13-Jun-20 19:09 45.885021 -122.570262 334 15010ft 260kts
13-Jun-20 19:10 45.954808 -122.606268 334 15949ft 279kts
13-Jun-20 19:11 46.032545 -122.646836 334 16002ft 314kts
13-Jun-20 19:12 46.119438 -122.684738 348 15995ft 341kts
13-Jun-20 19:13 46.214909 -122.701153 348 15995ft 348kts
13-Jun-20 19:14 46.311178 -122.721012 349 15983ft 353kts
13-Jun-20 19:15 46.409649 -122.725799 356 15994ft 356kts
13-Jun-20 19:16 46.508715 -122.729156 356 16027ft 355kts
13-Jun-20 19:17 46.606632 -122.732406 356 16013ft 352kts
13-Jun-20 19:18 46.703971 -122.736028 356 16014ft 349kts
13-Jun-20 19:19 46.798803 -122.721096 28 15898ft 349kts
13-Jun-20 19:20 46.874025 -122.634214 38 14588ft 340kts
13-Jun-20 19:21 46.945904 -122.558120 22 13122ft 305kts
13-Jun-20 19:22 47.025336 -122.523971 14 11982ft 293kts
13-Jun-20 19:23 47.103179 -122.494778 6 11004ft 284kts
13-Jun-20 19:24 47.182749 -122.481340 5 10542ft 293kts
13-Jun-20 19:25 47.262893 -122.468729 4 9639ft 281kts
13-Jun-20 19:26 47.337688 -122.457375 4 8505ft 262kts
13-Jun-20 19:27 47.409810 -122.454403 357 7140ft 260kts
13-Jun-20 19:28 47.479702 -122.455234 357 5861ft 234kts
13-Jun-20 19:29 47.544263 -122.453245 0 4589ft 231kts
13-Jun-20 19:30 47.607051 -122.448145 0 3386ft 219kts
13-Jun-20 19:31 47.669089 -122.442769 7 2990ft 233kts
13-Jun-20 19:32 47.688256 -122.371653 123 3001ft 209kts
13-Jun-20 19:33 47.647786 -122.314519 172 3002ft 205kts
13-Jun-20 19:34 47.593919 -122.307433 181 2960ft 182kts
13-Jun-20 19:35 47.547282 -122.306724 184 2082ft 157kts
13-Jun-20 19:36 47.510886 -122.307835 180 1356ft 106kts
13-Jun-20 19:37 47.482006 -122.307454 183 835ft 106kts
13-Jun-20 19:38 47.454879 -122.307816 179 440ft 42kts
13-Jun-20 19:39 47.451179 -122.306250 180 440ft 3kts
13-Jun-20 19:40 47.447390 -122.306286 180 440ft 17kts
13-Jun-20 19:41 47.443614 -122.306120 115 440ft 7kts
13-Jun-20 19:42 47.443849 -122.304153 359 440ft 1kts
13-Jun-20 19:43 47.443867 -122.304153 359 440ft 0kts
13-Jun-20 19:44 47.443867 -122.304153 359 440ft 0kts
13-Jun-20 19:45 47.443867 -122.304153 359 440ft 0kts
13-Jun-20 19:46 47.443867 -122.304153 359 440ft 0kts
13-Jun-20 19:47 47.443867 -122.304153 359 440ft 0kts

Navigation Log

Ident Type
Flight plan parsing failed, navigation log unavailable